Time;durP1;ratioP1;P1;durP2;ratioP2;P2;SDS_P1;SDS_P2;PMS_P1;PMS_P2;Temp;Humidity;BMP_temperature;BMP_pressure;BME280_temperature;BME280_humidity;BME280_pressure;Samples;Min_cycle;Max_cycle;Signal;HPM_P1;HPM_P2
2023/06/13 00:02:17;;;;;;;7.07;6.97;;;;;;;-145.94;36.62;75954.19;5115891;28;20237;-68
2023/06/13 00:04:45;;;;;;;18.73;7.83;;;;;;;-145.94;36.83;75972.53;5116331;28;20700;-68
2023/06/13 00:07:12;;;;;;;7.10;6.70;;;;;;;-145.94;36.89;75978.63;5116493;28;20192;-68
2023/06/13 00:09:39;;;;;;;8.33;7.87;;;;;;;-145.94;36.97;75978.63;5116273;28;20216;-67
2023/06/13 00:12:09;;;;;;;7.27;7.17;;;;;;;-145.94;37.15;75992.91;5116093;28;20200;-67
2023/06/13 00:14:35;;;;;;;7.40;7.10;;;;;;;-145.94;37.26;75994.94;5116134;28;20705;-67
2023/06/13 00:17:02;;;;;;;7.40;7.30;;;;;;;-145.94;37.37;75992.91;5116063;28;20185;-68
2023/06/13 00:19:28;;;;;;;8.07;7.23;;;;;;;-145.94;37.46;76005.16;5115950;28;20718;-68
2023/06/13 00:21:57;;;;;;;7.37;7.07;;;;;;;-145.94;37.33;76007.19;5116511;28;20215;-68
2023/06/13 00:24:23;;;;;;;7.80;7.30;;;;;;;-145.94;37.63;76009.22;5116503;28;20581;-68
2023/06/13 00:26:50;;;;;;;6.47;6.33;;;;;;;-145.94;37.69;76015.34;5115862;28;20254;-68
2023/06/13 00:29:16;;;;;;;7.33;7.03;;;;;;;-145.94;37.59;76007.19;5115636;28;20270;-68
2023/06/13 00:31:43;;;;;;;8.60;8.03;;;;;;;-145.94;37.73;76015.34;5097442;28;20229;-68
2023/06/13 00:34:10;;;;;;;8.67;8.13;;;;;;;-145.94;38.06;76021.44;5115743;28;20188;-68
2023/06/13 00:36:37;;;;;;;6.87;6.77;;;;;;;-145.94;37.71;76017.38;5115716;28;20192;-68
2023/06/13 00:39:03;;;;;;;7.30;6.73;;;;;;;-145.94;37.75;76017.38;5097396;28;20231;-67
2023/06/13 00:41:33;;;;;;;7.90;7.27;;;;;;;-145.94;37.80;76017.38;5097368;28;20673;-68
2023/06/13 00:44:00;;;;;;;7.77;7.50;;;;;;;-145.94;37.97;76017.38;5097366;28;20189;-68
2023/06/13 00:46:32;;;;;;;7.73;7.40;;;;;;;-145.94;37.98;76023.50;5116066;28;20189;-68
2023/06/13 00:49:00;;;;;;;7.30;6.77;;;;;;;-145.94;38.11;76029.59;5097156;28;20220;-67
2023/06/13 00:51:28;;;;;;;8.00;7.80;;;;;;;-145.94;38.35;76029.59;5097067;28;20639;-68
2023/06/13 00:53:56;;;;;;;7.97;7.60;;;;;;;-145.94;38.25;76025.53;5115308;28;20197;-68
2023/06/13 00:56:28;;;;;;;7.90;7.23;;;;;;;-145.94;38.11;76023.50;5097006;28;20252;-68
2023/06/13 00:58:58;;;;;;;8.33;7.70;;;;;;;-145.94;38.15;76017.38;5115185;28;20296;-68
2023/06/13 01:01:25;;;;;;;7.87;7.37;;;;;;;-145.94;38.67;76033.69;5115504;28;20239;-68
2023/06/13 01:03:52;;;;;;;8.47;8.00;;;;;;;-145.94;38.40;76037.75;5115136;28;20570;-70
2023/06/13 01:06:18;;;;;;;8.17;7.90;;;;;;;-145.94;38.56;76043.88;5115382;28;20230;-70
2023/06/13 01:08:45;;;;;;;8.03;7.83;;;;;;;-145.94;38.47;76045.91;5115012;28;20197;-70
2023/06/13 01:11:19;;;;;;;8.10;7.50;;;;;;;-145.94;38.35;76035.72;5115022;28;20198;-70
2023/06/13 01:13:51;;;;;;;8.60;7.83;;;;;;;-145.94;38.63;76041.84;5114104;28;20193;-70
2023/06/13 01:16:34;;;;;;;9.03;8.33;;;;;;;-145.94;38.74;76050.00;5115221;28;20203;-70
2023/06/13 01:19:08;;;;;;;8.17;7.70;;;;;;;-145.94;39.34;76064.25;5115252;28;20205;-70
2023/06/13 01:21:37;;;;;;;8.57;8.40;;;;;;;-145.94;39.46;76070.38;5114828;28;20172;-70
2023/06/13 01:24:09;;;;;;;7.80;7.43;;;;;;;-145.94;39.17;76064.25;5114734;28;20185;-70
2023/06/13 01:26:56;;;;;;;7.47;7.07;;;;;;;-145.94;39.10;76054.06;5096454;28;20693;-70
2023/06/13 01:29:23;;;;;;;8.87;8.47;;;;;;;-145.94;39.20;76074.47;5096192;28;20698;-70
2023/06/13 01:31:54;;;;;;;8.77;7.87;;;;;;;-145.94;39.78;76090.78;5114854;28;20628;-70
2023/06/13 01:34:22;;;;;;;9.07;8.03;;;;;;;-145.94;39.76;76090.78;5114823;28;20256;-70
2023/06/13 01:36:50;;;;;;;8.93;8.43;;;;;;;-145.94;39.61;76088.72;5096326;28;20205;-70
2023/06/13 01:39:16;;;;;;;8.97;8.43;;;;;;;-145.94;39.57;76094.84;5096195;28;20209;-70
2023/06/13 01:41:43;;;;;;;8.40;7.70;;;;;;;-145.94;39.32;76088.72;5114693;28;20518;-68
2023/06/13 01:44:16;;;;;;;8.43;8.13;;;;;;;-145.94;39.48;76094.84;5114375;28;20189;-68
2023/06/13 01:46:57;;;;;;;8.00;7.83;;;;;;;-145.94;39.63;76094.84;5114940;28;20631;-68
2023/06/13 01:49:23;;;;;;;9.17;8.63;;;;;;;-145.94;39.53;76100.97;5114813;28;20209;-67
2023/06/13 01:52:02;;;;;;;9.30;9.07;;;;;;;-145.94;39.39;76098.94;5114194;28;20189;-68
2023/06/13 01:54:33;;;;;;;8.47;8.07;;;;;;;-145.94;39.66;76100.97;5114796;28;20185;-68
2023/06/13 01:57:02;;;;;;;8.97;8.43;;;;;;;-145.94;39.63;76111.16;5114406;28;20268;-68
2023/06/13 01:59:32;;;;;;;13.67;8.93;;;;;;;-145.94;39.52;76109.13;5095858;28;20220;-68
2023/06/13 02:02:00;;;;;;;10.73;9.20;;;;;;;-145.94;39.87;76119.31;5095868;28;20189;-68
2023/06/13 02:04:26;;;;;;;9.67;9.03;;;;;;;-145.94;39.83;76121.34;5096627;28;20193;-68
2023/06/13 02:06:53;;;;;;;8.23;8.03;;;;;;;-145.94;39.93;76129.50;5095830;28;20605;-68
2023/06/13 02:09:19;;;;;;;9.80;9.30;;;;;;;-145.94;39.99;76137.66;5095716;28;20254;-68
2023/06/13 02:11:46;;;;;;;9.53;9.13;;;;;;;-145.94;40.24;76141.75;5113934;28;20664;-68
2023/06/13 02:14:12;;;;;;;17.97;11.53;;;;;;;-145.94;40.01;76145.81;5114408;28;20201;-68
2023/06/13 02:16:39;;;;;;;9.40;8.70;;;;;;;-145.94;40.13;76137.66;5095614;28;20678;-68
2023/06/13 02:19:07;;;;;;;8.00;7.80;;;;;;;-145.94;40.20;76153.97;5095483;28;20710;-68
2023/06/13 02:21:33;;;;;;;8.83;8.53;;;;;;;-145.94;40.01;76139.69;5113866;28;20547;-68
2023/06/13 02:24:00;;;;;;;9.07;8.70;;;;;;;-145.94;40.20;76151.94;5113785;28;20181;-68
2023/06/13 02:26:28;;;;;;;8.93;8.63;;;;;;;-145.94;40.31;76156.00;5113829;28;20189;-68
2023/06/13 02:28:57;;;;;;;9.73;8.87;;;;;;;-145.94;40.44;76153.97;5113524;28;20209;-67
2023/06/13 02:31:24;;;;;;;8.67;8.53;;;;;;;-145.94;40.16;76147.84;5095551;28;20178;-68
2023/06/13 02:33:54;;;;;;;9.37;8.73;;;;;;;-145.94;40.35;76153.97;5095415;28;20213;-68
2023/06/13 02:36:20;;;;;;;10.90;8.37;;;;;;;-145.94;40.74;76168.25;5095516;28;20712;-68
2023/06/13 02:38:47;;;;;;;8.67;8.23;;;;;;;-145.94;40.50;76166.22;5113880;28;20333;-67
2023/06/13 02:41:13;;;;;;;9.10;8.70;;;;;;;-145.94;40.76;76176.41;5114197;28;20570;-70
2023/06/13 02:43:40;;;;;;;9.37;8.83;;;;;;;-145.94;40.62;76186.59;5113675;28;20202;-70
2023/06/13 02:46:06;;;;;;;9.80;9.20;;;;;;;-145.94;40.82;76184.56;5095452;28;20185;-70
2023/06/13 02:48:33;;;;;;;9.43;8.73;;;;;;;-145.94;40.63;76186.59;5113543;28;20623;-69
2023/06/13 02:51:00;;;;;;;9.57;9.10;;;;;;;-145.94;41.06;76184.56;5114064;28;20213;-70
2023/06/13 02:53:26;;;;;;;9.37;8.90;;;;;;;-145.94;40.71;76188.63;5113783;28;20193;-70
2023/06/13 02:55:54;;;;;;;9.70;8.73;;;;;;;-145.94;41.16;76184.56;5095244;28;20295;-70
2023/06/13 02:58:21;;;;;;;13.80;9.53;;;;;;;-145.94;40.96;76190.69;5113517;28;20208;-70
2023/06/13 03:00:49;;;;;;;11.37;9.17;;;;;;;-145.94;40.84;76184.56;5095232;28;20189;-68
2023/06/13 03:03:18;;;;;;;12.57;9.00;;;;;;;-145.94;40.98;76186.59;5095196;28;20193;-67
2023/06/13 03:05:47;;;;;;;11.90;9.70;;;;;;;-145.94;41.13;76194.75;5094988;28;20568;-67
2023/06/13 03:08:20;;;;;;;9.10;8.40;;;;;;;-145.94;41.05;76202.91;5095376;28;20760;-68
2023/06/13 03:10:48;;;;;;;10.37;9.77;;;;;;;-145.94;41.72;76219.22;5095176;28;20182;-68
2023/06/13 03:13:18;;;;;;;10.40;9.77;;;;;;;-145.94;41.91;76231.44;5095058;28;20560;-68
2023/06/13 03:15:47;;;;;;;10.50;9.73;;;;;;;-145.94;42.11;76237.56;5113528;28;20235;-68
2023/06/13 03:18:14;;;;;;;10.47;9.67;;;;;;;-145.94;41.96;76233.50;5095047;28;20193;-68
2023/06/13 03:20:48;;;;;;;11.30;10.17;;;;;;;-145.94;41.95;76241.66;5094960;28;20217;-67
2023/06/13 03:23:17;;;;;;;10.67;9.60;;;;;;;-145.94;42.29;76253.88;5095850;28;20177;-67
2023/06/13 03:25:44;;;;;;;9.37;9.07;;;;;;;-145.94;42.28;76262.03;5094916;28;20216;-67
2023/06/13 03:28:11;;;;;;;10.40;9.80;;;;;;;-145.94;42.43;76276.31;5094945;28;20254;-67
2023/06/13 03:30:38;;;;;;;10.03;9.67;;;;;;;-145.94;42.99;76272.22;5094709;28;20359;-67
2023/06/13 03:33:05;;;;;;;10.00;9.60;;;;;;;-145.94;43.02;76270.19;5094803;28;20706;-67
2023/06/13 03:35:36;;;;;;;10.57;9.70;;;;;;;-145.94;42.59;76272.22;5094910;28;20178;-68
2023/06/13 03:38:04;;;;;;;19.53;9.73;;;;;;;-145.94;43.11;76274.28;5096925;28;20192;-68
2023/06/13 03:40:32;;;;;;;11.13;10.13;;;;;;;-145.94;42.88;76266.13;5098505;28;20234;-67
2023/06/13 03:42:59;;;;;;;12.30;10.53;;;;;;;-145.94;42.85;76268.16;5116723;28;20708;-67
2023/06/13 03:45:25;;;;;;;10.37;9.97;;;;;;;-145.94;42.83;76274.28;5116699;28;20199;-67
2023/06/13 03:47:52;;;;;;;11.07;10.00;;;;;;;-145.94;42.96;76268.16;5117188;28;20196;-67
2023/06/13 03:50:18;;;;;;;10.17;9.73;;;;;;;-145.94;43.56;76282.44;5098573;28;20627;-68
2023/06/13 03:52:45;;;;;;;10.77;10.17;;;;;;;-145.94;43.15;76272.22;5098206;28;20213;-68
2023/06/13 03:55:13;;;;;;;9.57;9.17;;;;;;;-145.94;43.12;76280.38;5116499;28;20193;-68
2023/06/13 03:57:40;;;;;;;9.50;9.10;;;;;;;-145.94;43.25;76282.44;5116715;28;20189;-67
2023/06/13 04:00:08;;;;;;;11.27;10.40;;;;;;;-145.94;43.60;76286.50;5098120;28;20631;-67
2023/06/13 04:02:40;;;;;;;15.33;9.77;;;;;;;-145.94;43.32;76284.47;5116392;28;20599;-67
2023/06/13 04:05:12;;;;;;;9.83;9.53;;;;;;;-145.94;44.16;76300.78;5098357;28;20629;-67
2023/06/13 04:07:39;;;;;;;10.73;9.87;;;;;;;-145.94;43.83;76288.53;5097998;28;20208;-67
2023/06/13 04:10:06;;;;;;;10.53;10.13;;;;;;;-145.94;43.69;76288.53;5116170;28;20269;-67
2023/06/13 04:12:35;;;;;;;11.73;10.80;;;;;;;-145.94;43.84;76288.53;5097860;28;20231;-68
2023/06/13 04:15:02;;;;;;;12.30;9.40;;;;;;;-145.94;43.46;76296.69;5097839;28;20193;-68
2023/06/13 04:17:28;;;;;;;9.87;9.37;;;;;;;-145.94;43.80;76286.50;5097764;28;20718;-67
2023/06/13 04:19:55;;;;;;;9.90;9.43;;;;;;;-145.94;43.42;76272.22;5115979;28;20238;-67
2023/06/13 04:22:21;;;;;;;10.53;9.87;;;;;;;-145.94;42.99;76264.06;5097645;28;20201;-67
2023/06/13 04:24:48;;;;;;;11.00;10.30;;;;;;;-145.94;42.99;76260.00;5097775;28;20189;-67
2023/06/13 04:27:19;;;;;;;9.47;9.17;;;;;;;-145.94;42.81;76251.84;5097854;28;20197;-67
2023/06/13 04:29:49;;;;;;;11.17;9.50;;;;;;;-145.94;43.29;76257.97;5115851;28;20213;-67
2023/06/13 04:32:17;;;;;;;9.07;8.67;;;;;;;-145.94;43.14;76249.81;5115823;28;20177;-70
2023/06/13 04:34:45;;;;;;;10.50;9.57;;;;;;;-145.94;43.33;76237.56;5115683;28;20201;-68
2023/06/13 04:37:11;;;;;;;9.00;8.40;;;;;;;-145.94;43.08;76235.53;5115962;28;20247;-67
2023/06/13 04:39:38;;;;;;;9.33;8.87;;;;;;;-145.94;42.82;76227.38;5115579;28;20223;-67
2023/06/13 04:42:05;;;;;;;9.73;8.93;;;;;;;-145.94;43.01;76231.44;5097333;28;20250;-67
2023/06/13 04:44:33;;;;;;;20.03;9.53;;;;;;;-145.94;42.37;76221.25;5116097;28;20185;-67
2023/06/13 04:47:01;;;;;;;10.17;8.83;;;;;;;-145.94;42.68;76211.06;5115524;28;20181;-67
2023/06/13 04:49:28;;;;;;;10.57;10.00;;;;;;;-145.94;43.03;76211.06;5115634;28;20292;-70
2023/06/13 04:51:55;;;;;;;10.37;9.70;;;;;;;-145.94;43.08;76202.91;5115615;28;20593;-70
2023/06/13 04:54:21;;;;;;;10.10;9.40;;;;;;;-145.94;42.35;76202.91;5115581;28;20217;-70
2023/06/13 04:56:49;;;;;;;9.30;9.00;;;;;;;-145.94;43.13;76204.94;5115292;28;20185;-69
2023/06/13 04:59:15;;;;;;;15.80;9.33;;;;;;;-145.94;42.62;76196.78;5115385;28;20216;-67
2023/06/13 05:01:43;;;;;;;10.77;9.70;;;;;;;-145.94;42.72;76198.81;5115446;28;20671;-67
2023/06/13 05:04:10;;;;;;;10.37;9.87;;;;;;;-145.94;43.39;76198.81;5115142;28;20720;-67
2023/06/13 05:06:37;;;;;;;10.07;9.10;;;;;;;-145.94;42.72;76188.63;5115102;28;20185;-68
2023/06/13 05:09:06;;;;;;;9.90;9.07;;;;;;;-145.94;42.86;76176.41;5115558;28;20216;-68
2023/06/13 05:11:32;;;;;;;10.93;9.83;;;;;;;-145.94;42.76;76184.56;5115281;28;20226;-67
2023/06/13 05:13:58;;;;;;;10.97;10.10;;;;;;;-145.94;43.42;76184.56;5114877;28;20205;-67
2023/06/13 05:16:29;;;;;;;9.00;8.70;;;;;;;-145.94;42.60;76184.56;5114854;28;20558;-67
2023/06/13 05:18:57;;;;;;;19.13;10.40;;;;;;;-145.94;42.37;76184.56;5115049;28;20244;-67
2023/06/13 05:21:24;;;;;;;10.50;9.60;;;;;;;-145.94;42.91;76176.41;5115298;28;20242;-67
2023/06/13 05:23:51;;;;;;;10.53;9.50;;;;;;;-145.94;42.53;76164.16;5114930;28;20182;-67
2023/06/13 05:26:17;;;;;;;13.17;9.07;;;;;;;-145.94;42.00;76162.13;5114802;28;20177;-67
2023/06/13 05:28:44;;;;;;;9.77;8.93;;;;;;;-145.94;42.01;76147.84;5114620;28;20205;-66
2023/06/13 05:31:10;;;;;;;9.20;8.93;;;;;;;-145.94;41.97;76139.69;5114520;28;20204;-68
2023/06/13 05:33:39;;;;;;;10.47;9.90;;;;;;;-145.94;42.32;76143.78;5114457;28;20202;-68
2023/06/13 05:36:06;;;;;;;9.37;9.03;;;;;;;-145.94;42.56;76129.50;5114486;28;20596;-67
2023/06/13 05:38:32;;;;;;;8.97;8.67;;;;;;;-145.94;42.33;76119.31;5114403;28;20193;-67
2023/06/13 05:40:59;;;;;;;9.87;9.07;;;;;;;-145.94;42.00;76113.19;5114972;28;20600;-67
2023/06/13 05:43:25;;;;;;;10.60;9.53;;;;;;;-145.94;41.86;76107.09;5114358;28;20181;-67
2023/06/13 05:45:52;;;;;;;8.57;8.27;;;;;;;-145.94;41.76;76105.03;5114346;28;20597;-67
2023/06/13 05:48:18;;;;;;;15.47;9.13;;;;;;;-145.94;41.39;76080.56;5114595;28;20185;-67
2023/06/13 05:50:45;;;;;;;8.70;8.40;;;;;;;-145.94;41.54;76062.22;5114394;28;20682;-67
2023/06/13 05:53:11;;;;;;;9.40;8.83;;;;;;;-145.94;41.35;76052.03;5114180;28;20205;-68
2023/06/13 05:55:37;;;;;;;8.77;8.57;;;;;;;-145.94;41.24;76047.97;5114221;28;20185;-68
2023/06/13 05:58:04;;;;;;;9.27;8.97;;;;;;;-145.94;41.51;76050.00;5114338;28;20586;-67
2023/06/13 06:00:30;;;;;;;10.40;9.70;;;;;;;-145.94;40.69;76037.75;5113489;28;20211;-67
2023/06/13 06:03:00;;;;;;;9.17;8.53;;;;;;;-145.94;40.46;76023.50;5114080;28;20188;-67
2023/06/13 06:05:29;;;;;;;10.87;8.33;;;;;;;-145.94;40.50;76015.34;5114074;28;20181;-67
2023/06/13 06:07:55;;;;;;;9.93;9.07;;;;;;;-145.94;40.83;76017.38;5114060;28;20185;-68
2023/06/13 06:10:22;;;;;;;8.97;8.10;;;;;;;-145.94;40.98;75997.00;5114140;28;20216;-67
2023/06/13 06:12:48;;;;;;;9.97;8.73;;;;;;;-145.94;40.48;75972.53;5113950;28;20189;-67
2023/06/13 06:15:15;;;;;;;9.27;8.57;;;;;;;-145.94;39.90;75958.25;5113840;28;20205;-67
2023/06/13 06:17:41;;;;;;;8.37;8.07;;;;;;;-145.94;39.40;75952.13;5114183;28;20185;-67
2023/06/13 06:20:08;;;;;;;8.43;8.00;;;;;;;-145.94;39.63;75931.75;5113919;28;20211;-67
2023/06/13 06:22:36;;;;;;;7.83;7.63;;;;;;;-145.94;39.72;75923.59;5113805;28;20188;-68
2023/06/13 06:25:02;;;;;;;16.33;8.43;;;;;;;-145.94;39.37;75913.41;5113820;28;20181;-67
2023/06/13 06:27:29;;;;;;;9.20;8.40;;;;;;;-145.94;39.65;75897.09;5114312;28;20181;-67
2023/06/13 06:29:55;;;;;;;8.93;8.10;;;;;;;-145.94;39.73;75893.00;5113615;28;20258;-68
2023/06/13 06:32:22;;;;;;;10.03;8.50;;;;;;;-145.94;38.38;75876.69;5113843;28;20193;-67
2023/06/13 06:34:48;;;;;;;9.10;8.53;;;;;;;-145.94;39.07;75860.41;5114072;28;20242;-67
2023/06/13 06:37:15;;;;;;;8.30;7.80;;;;;;;-145.94;38.92;75840.00;5113923;28;20238;-67
2023/06/13 06:39:42;;;;;;;7.77;7.30;;;;;;;-145.94;38.48;75823.69;5113549;28;20755;-67
2023/06/13 06:42:08;;;;;;;11.77;9.10;;;;;;;-145.94;38.59;75803.31;5113607;28;20226;-68
2023/06/13 06:44:44;;;;;;;12.83;8.23;;;;;;;-145.94;37.43;75791.09;5096154;28;20234;-67
2023/06/13 06:47:11;;;;;;;15.17;7.87;;;;;;;-145.94;37.80;75787.00;5113477;28;20193;-67
2023/06/13 06:49:37;;;;;;;8.70;7.97;;;;;;;-145.94;37.72;75780.88;5113740;28;20213;-67
2023/06/13 06:52:04;;;;;;;7.23;6.97;;;;;;;-145.94;37.52;75770.69;5113483;28;20189;-68
2023/06/13 06:54:31;;;;;;;8.43;7.60;;;;;;;-145.94;37.46;75762.53;5113299;28;20292;-68
2023/06/13 06:56:58;;;;;;;8.23;7.93;;;;;;;-145.94;37.30;75758.47;5113492;28;20219;-68
2023/06/13 06:59:25;;;;;;;26.67;8.07;;;;;;;-145.94;37.87;75746.22;5113367;28;20246;-68
2023/06/13 07:01:52;;;;;;;8.17;7.60;;;;;;;-145.94;37.07;75734.00;5113707;28;20211;-68
2023/06/13 07:04:18;;;;;;;8.53;7.17;;;;;;;-145.94;36.94;75725.84;5113979;28;20269;-68
2023/06/13 07:06:45;;;;;;;7.87;7.67;;;;;;;-145.94;37.17;75725.84;5113646;28;20553;-68
2023/06/13 07:09:11;;;;;;;7.40;6.87;;;;;;;-145.94;36.41;75697.31;5113507;28;20205;-67
2023/06/13 07:11:38;;;;;;;7.80;7.50;;;;;;;-145.94;35.21;75685.06;5113871;28;20189;-67
2023/06/13 07:14:04;;;;;;;11.00;7.60;;;;;;;-145.94;35.54;75670.81;5117158;28;20196;-67
2023/06/13 07:16:31;;;;;;;7.77;7.30;;;;;;;-145.94;35.32;75672.84;5117265;28;20251;-68
2023/06/13 07:18:57;;;;;;;8.37;8.13;;;;;;;-145.94;35.18;75664.69;5117200;28;20718;-67
2023/06/13 07:21:24;;;;;;;12.37;7.30;;;;;;;-145.94;35.50;75666.72;5117299;28;20780;-68
2023/06/13 07:23:50;;;;;;;7.97;7.50;;;;;;;-145.94;35.95;75642.25;5117048;28;20185;-68
2023/06/13 07:26:33;;;;;;;8.47;7.73;;;;;;;-145.94;35.52;75630.03;5117571;28;20198;-67
2023/06/13 07:29:00;;;;;;;6.93;6.80;;;;;;;-145.94;35.02;75605.56;5117100;28;20201;-67
2023/06/13 07:31:26;;;;;;;7.40;6.67;;;;;;;-145.94;34.55;75595.38;5117023;28;20584;-67
2023/06/13 07:33:52;;;;;;;6.93;6.77;;;;;;;-145.94;34.16;75589.25;5116824;28;20205;-67
2023/06/13 07:36:19;;;;;;;9.30;7.00;;;;;;;-145.94;33.86;75587.22;5116873;28;20196;-67
2023/06/13 07:38:45;;;;;;;7.33;7.13;;;;;;;-145.94;33.80;75575.00;5117011;28;20258;-67
2023/06/13 07:41:12;;;;;;;7.93;7.30;;;;;;;-145.94;32.86;75558.69;5116779;28;20666;-67
2023/06/13 07:43:38;;;;;;;6.90;6.70;;;;;;;-145.94;33.11;75548.50;5116823;28;20524;-67
2023/06/13 07:46:06;;;;;;;7.60;7.10;;;;;;;-145.94;32.71;75546.44;5116987;28;20186;-67
2023/06/13 07:48:32;;;;;;;7.57;7.27;;;;;;;-145.94;31.74;75530.13;5116561;28;20196;-67
2023/06/13 07:50:59;;;;;;;7.37;6.93;;;;;;;-145.94;31.89;75528.09;5098347;28;20234;-67
2023/06/13 07:53:25;;;;;;;6.67;6.47;;;;;;;-145.94;32.23;75522.00;5116512;28;20189;-68
2023/06/13 07:55:54;;;;;;;7.00;6.80;;;;;;;-145.94;32.20;75509.75;5116794;28;20185;-68
2023/06/13 07:58:21;;;;;;;6.70;6.10;;;;;;;-145.94;32.69;75505.69;5116452;28;20189;-68
2023/06/13 08:00:47;;;;;;;7.13;6.87;;;;;;;-145.94;32.67;75483.25;5116362;28;20209;-67
2023/06/13 08:03:13;;;;;;;6.67;6.40;;;;;;;-145.94;32.29;75481.22;5116391;28;20197;-67
2023/06/13 08:05:40;;;;;;;7.23;6.93;;;;;;;-145.94;32.11;75477.13;5116927;28;20238;-68
2023/06/13 08:08:07;;;;;;;7.20;6.80;;;;;;;-145.94;32.09;75483.25;5116236;28;20238;-68
2023/06/13 08:10:33;;;;;;;6.83;6.63;;;;;;;-145.94;31.65;75493.44;5116182;28;20231;-68
2023/06/13 08:13:00;;;;;;;6.80;6.27;;;;;;;-145.94;31.41;75475.09;5116260;28;20667;-68
2023/06/13 08:15:26;;;;;;;6.80;6.50;;;;;;;-145.94;31.32;75471.03;5097775;28;20216;-68
2023/06/13 08:17:54;;;;;;;7.20;7.00;;;;;;;-145.94;32.18;75464.91;5116087;28;20693;-68
2023/06/13 08:20:21;;;;;;;7.40;7.03;;;;;;;-145.94;31.22;75452.69;5116303;28;20220;-68
2023/06/13 08:22:47;;;;;;;6.90;6.67;;;;;;;-145.94;31.64;75446.56;5115672;28;20181;-67
2023/06/13 08:25:14;;;;;;;6.70;6.17;;;;;;;-145.94;31.00;75440.44;5115968;28;20228;-68
2023/06/13 08:27:41;;;;;;;7.17;6.53;;;;;;;-145.94;31.78;75428.22;5116175;28;20214;-67
2023/06/13 08:30:08;;;;;;;7.43;6.77;;;;;;;-145.94;31.59;75434.34;5115556;28;20221;-67
2023/06/13 08:32:35;;;;;;;13.60;6.53;;;;;;;-145.94;31.62;75444.53;5115849;28;20632;-68
2023/06/13 08:35:03;;;;;;;6.43;6.33;;;;;;;-145.94;31.43;75440.44;5115714;28;20262;-69
2023/06/13 08:37:29;;;;;;;6.83;6.30;;;;;;;-145.94;31.50;75418.03;5116002;28;20182;-68
2023/06/13 08:39:55;;;;;;;7.53;7.13;;;;;;;-145.94;31.12;75403.75;5097703;28;20216;-67
2023/06/13 08:42:22;;;;;;;7.10;6.60;;;;;;;-145.94;30.95;75393.56;5115580;28;20193;-68
2023/06/13 08:44:49;;;;;;;7.23;6.23;;;;;;;-145.94;30.82;75391.53;5115629;28;20177;-68
2023/06/13 08:47:18;;;;;;;6.07;5.90;;;;;;;-145.94;30.29;75381.34;5116318;28;20597;-68
2023/06/13 08:50:03;;;;;;;6.77;6.30;;;;;;;-145.94;30.80;75379.28;5115444;28;20216;-67
2023/06/13 08:52:37;;;;;;;8.63;6.47;;;;;;;-145.94;30.73;75369.09;5115452;28;20667;-68
2023/06/13 08:55:08;;;;;;;6.97;6.67;;;;;;;-145.94;30.97;75358.91;5115374;28;20200;-68
2023/06/13 08:57:54;;;;;;;7.80;6.97;;;;;;;-145.94;30.29;75346.69;5115903;28;20173;-68
2023/06/13 09:00:23;;;;;;;6.40;6.30;;;;;;;-145.94;30.48;75332.41;5115295;28;20275;-68
2023/06/13 09:02:52;;;;;;;7.40;6.90;;;;;;;-145.94;30.55;75322.22;5115163;28;20237;-68
2023/06/13 09:05:19;;;;;;;11.85;6.22;;;;;;;-145.94;30.13;75307.94;5115169;28;20189;-67
2023/06/13 09:07:46;;;;;;;7.63;7.00;;;;;;;-145.94;30.56;75310.00;5115089;28;20189;-68
2023/06/13 09:10:13;;;;;;;6.90;6.27;;;;;;;-145.94;29.80;75318.13;5115820;28;20247;-69
2023/06/13 09:12:41;;;;;;;6.57;6.47;;;;;;;-145.94;29.81;75307.94;5115047;28;20682;-69
2023/06/13 09:15:09;;;;;;;6.30;6.15;;;;;;;-145.94;30.04;75299.78;5115483;28;20270;-69
2023/06/13 09:17:35;;;;;;;6.47;6.33;;;;;;;-145.94;30.03;75299.78;5114952;28;20641;-68
2023/06/13 09:20:07;;;;;;;7.07;6.88;;;;;;;-145.94;29.55;75289.59;5114936;28;20205;-69
2023/06/13 09:22:35;;;;;;;7.03;6.93;;;;;;;-145.94;29.30;75301.84;5115732;28;20551;-69
2023/06/13 09:25:04;;;;;;;13.07;6.38;;;;;;;-145.94;29.00;75305.91;5114734;28;20209;-69
2023/06/13 09:27:31;;;;;;;8.23;6.20;;;;;;;-145.94;29.45;75297.75;5114696;28;20185;-69
2023/06/13 09:30:03;;;;;;;6.43;6.25;;;;;;;-145.94;29.34;75273.28;5114575;28;20205;-69
2023/06/13 09:32:30;;;;;;;19.00;6.05;;;;;;;-145.94;27.86;75275.34;5115173;28;20242;-69
2023/06/13 09:34:57;;;;;;;6.50;6.07;;;;;;;-145.94;27.61;75277.38;5113830;28;20569;-69
2023/06/13 09:37:25;;;;;;;6.38;5.82;;;;;;;-145.94;27.73;75275.34;5114591;28;20193;-69
2023/06/13 09:39:53;;;;;;;6.97;6.47;;;;;;;-145.94;27.82;75248.84;5114476;28;20580;-68
2023/06/13 09:42:35;;;;;;;5.95;5.85;;;;;;;-145.94;27.58;75265.16;5114472;28;20201;-69
2023/06/13 09:45:08;;;;;;;6.15;5.85;;;;;;;-145.94;27.58;75279.41;5114450;28;20193;-68
2023/06/13 09:47:35;;;;;;;6.45;6.15;;;;;;;-145.94;28.29;75275.34;5114364;28;20174;-68
2023/06/13 09:50:02;;;;;;;7.07;6.07;;;;;;;-145.94;27.83;75269.22;5114370;28;20262;-69
2023/06/13 09:52:32;;;;;;;7.22;6.65;;;;;;;-145.94;27.64;75252.91;5114283;28;20185;-69
2023/06/13 09:54:59;;;;;;;6.28;6.05;;;;;;;-145.94;28.28;75254.94;5114185;28;20220;-69
2023/06/13 09:57:25;;;;;;;6.35;6.05;;;;;;;-145.94;28.44;75244.75;5114262;28;20181;-68
2023/06/13 10:00:13;;;;;;;7.15;6.95;;;;;;;-145.94;27.97;75228.44;5114432;28;20205;-68
2023/06/13 10:02:43;;;;;;;6.50;6.15;;;;;;;-145.94;27.60;75228.44;5114094;28;20617;-68
2023/06/13 10:05:11;;;;;;;10.73;5.75;;;;;;;-145.94;27.32;75230.50;5114344;28;20554;-69
2023/06/13 10:07:38;;;;;;;6.47;6.05;;;;;;;-145.94;27.06;75244.75;5114331;28;20188;-68
2023/06/13 10:10:05;;;;;;;9.65;5.57;;;;;;;-145.94;27.36;75236.59;5113969;28;20694;-68
2023/06/13 10:12:36;;;;;;;6.05;5.65;;;;;;;-145.94;27.87;75246.78;5114059;28;20193;-69
2023/06/13 10:15:06;;;;;;;6.97;6.43;;;;;;;-145.94;27.89;75240.69;5114415;28;20258;-69
2023/06/13 10:17:39;;;;;;;7.70;7.15;;;;;;;-145.94;27.20;75246.78;5114377;28;20186;-68
2023/06/13 10:20:10;;;;;;;6.33;5.93;;;;;;;-145.94;27.53;75254.94;5114106;28;20262;-69
2023/06/13 10:22:38;;;;;;;6.05;5.95;;;;;;;-145.94;27.61;75250.88;5114165;28;20199;-69
2023/06/13 10:25:08;;;;;;;6.78;6.47;;;;;;;-145.94;27.76;75246.78;5113787;28;20185;-69
2023/06/13 10:27:37;;;;;;;6.32;6.20;;;;;;;-145.94;27.39;75238.66;5113807;28;20581;-69
2023/06/13 10:30:10;;;;;;;20.77;6.28;;;;;;;-145.94;27.76;75236.59;5113575;28;20759;-69
2023/06/13 10:33:05;;;;;;;7.05;6.80;;;;;;;-145.94;27.57;75222.34;5113793;28;20173;-69
2023/06/13 10:35:50;;;;;;;7.22;6.90;;;;;;;-145.94;27.67;75201.94;5113550;28;20205;-69
2023/06/13 10:38:54;;;;;;;5.90;5.80;;;;;;;-145.94;27.76;75179.53;5113669;28;20182;-69
2023/06/13 10:41:39;;;;;;;7.32;6.90;;;;;;;-145.94;27.29;75163.22;5113976;28;20176;-69
2023/06/13 10:44:27;;;;;;;6.53;6.07;;;;;;;-145.94;26.51;75191.75;5113648;28;20181;-68
2023/06/13 10:46:55;;;;;;;12.25;7.07;;;;;;;-145.94;27.06;75185.66;5115957;28;20222;-68
2023/06/13 10:49:22;;;;;;;7.57;6.57;;;;;;;-145.94;27.15;75195.84;5118076;28;20609;-68
2023/06/13 10:51:48;;;;;;;6.18;6.07;;;;;;;-145.94;26.92;75193.81;5118200;28;20635;-68
2023/06/13 10:54:15;;;;;;;11.32;6.50;;;;;;;-145.94;27.32;75167.31;5117942;28;20184;-70
2023/06/13 10:56:43;;;;;;;6.25;6.15;;;;;;;-145.94;27.41;75175.47;5117834;28;20196;-69
2023/06/13 10:59:13;;;;;;;7.10;6.63;;;;;;;-145.94;27.05;75181.56;5117541;28;20207;-69
2023/06/13 11:01:41;;;;;;;7.07;6.57;;;;;;;-145.94;27.15;75183.59;5118421;28;20199;-68
2023/06/13 11:04:10;;;;;;;6.85;6.45;;;;;;;-145.94;27.42;75179.53;5117699;28;20271;-69
2023/06/13 11:06:38;;;;;;;7.20;6.90;;;;;;;-145.94;27.34;75163.22;5117309;28;20213;-69
2023/06/13 11:09:19;;;;;;;7.22;6.93;;;;;;;-145.94;27.56;75153.03;5117591;28;20266;-68
2023/06/13 11:11:57;;;;;;;8.48;6.30;;;;;;;-145.94;27.70;75134.69;5117401;28;20624;-69
2023/06/13 11:14:26;;;;;;;7.88;7.45;;;;;;;-145.94;27.54;75153.03;5117645;28;20203;-69
2023/06/13 11:16:53;;;;;;;7.65;6.95;;;;;;;-145.94;28.26;75153.03;5117878;28;20357;-69
2023/06/13 11:19:33;;;;;;;18.85;6.97;;;;;;;-145.94;27.97;75140.81;5117170;28;20232;-69
2023/06/13 11:22:00;;;;;;;6.75;6.13;;;;;;;-145.94;27.06;75132.66;5117795;28;20173;-69